createdAt,value
2022-08-11T00:00:21.502Z,102201.88
2022-08-11T00:02:52.076Z,102192.59
2022-08-11T00:05:20.340Z,102197.41
2022-08-11T00:07:49.910Z,102206.69
2022-08-11T00:10:17.892Z,102205.84
2022-08-11T00:12:45.480Z,102205.84
2022-08-11T00:15:13.831Z,102203.03
2022-08-11T00:17:41.427Z,102204.22
2022-08-11T00:20:12.793Z,102210.31
2022-08-11T00:22:44.407Z,102205.84
2022-08-11T00:25:13.951Z,102206.69
2022-08-11T00:27:41.626Z,102212.31
2022-08-11T00:30:09.873Z,102208.69
2022-08-11T00:32:37.666Z,102213.13
2022-08-11T00:35:55.614Z,102211.50
2022-08-11T00:37:53.418Z,102206.69
2022-08-11T00:40:24.721Z,102205.03
2022-08-11T00:42:56.369Z,102201.41
2022-08-11T00:45:25.014Z,102204.22
2022-08-11T00:47:56.835Z,102192.97
2022-08-11T00:50:28.570Z,102197.41
2022-08-11T00:53:00.424Z,102195.78
2022-08-11T00:55:55.530Z,102197.41
2022-08-11T00:58:50.880Z,102207.03
2022-08-11T01:01:27.423Z,102205.84
2022-08-11T01:04:01.037Z,102201.41
2022-08-11T01:06:32.822Z,102209.84
2022-08-11T01:09:17.866Z,102201.41
2022-08-11T01:12:08.217Z,102208.19
2022-08-11T01:14:42.530Z,102213.81
2022-08-11T01:17:14.950Z,102221.13
2022-08-11T01:20:45.825Z,102219.44
2022-08-11T01:23:00.871Z,102212.66
2022-08-11T01:26:02.310Z,102220.28
2022-08-11T01:28:54.999Z,102220.28
2022-08-11T01:31:28.757Z,102213.00
2022-08-11T01:34:13.260Z,102213.00
2022-08-11T01:36:56.585Z,102216.63
2022-08-11T01:39:42.548Z,102217.81
2022-08-11T01:42:40.012Z,102217.81
2022-08-11T01:45:09.012Z,102223.44
2022-08-11T01:47:54.728Z,102215.00
2022-08-11T01:50:25.302Z,102222.63
2022-08-11T01:53:00.947Z,102216.19
2022-08-11T01:55:29.386Z,102207.72
2022-08-11T01:57:57.996Z,102215.00
2022-08-11T02:00:26.215Z,102204.91
2022-08-11T02:02:54.777Z,102201.28
2022-08-11T02:05:28.044Z,102209.72
2022-08-11T02:07:58.418Z,102203.28
2022-08-11T02:10:50.395Z,102203.28
2022-08-11T02:13:23.493Z,102203.28
2022-08-11T02:16:05.736Z,102202.09
2022-08-11T02:18:48.016Z,102202.47
2022-08-11T02:21:35.588Z,102214.53
2022-08-11T02:24:07.917Z,102210.09
2022-08-11T02:26:37.412Z,102208.09
2022-08-11T02:29:06.697Z,102206.09
2022-08-11T02:32:14.626Z,102207.28
2022-08-11T02:34:59.372Z,102201.66
2022-08-11T02:37:28.603Z,102192.38
2022-08-11T02:40:05.512Z,102199.97
2022-08-11T02:42:35.932Z,102200.81
2022-08-11T02:45:27.850Z,102196.00
2022-08-11T02:48:14.148Z,102195.19
2022-08-11T02:50:42.710Z,102190.38
2022-08-11T02:53:12.401Z,102194.34
2022-08-11T02:55:44.589Z,102197.16
2022-08-11T02:58:28.251Z,102199.97
2022-08-11T03:00:57.417Z,102194.34
2022-08-11T03:03:25.711Z,102191.09
2022-08-11T03:05:55.211Z,102189.09
2022-08-11T03:08:25.823Z,102197.53
2022-08-11T03:11:15.617Z,102192.72
2022-08-11T03:14:01.348Z,102198.34
2022-08-11T03:16:48.392Z,102191.09
2022-08-11T03:19:19.656Z,102189.09
2022-08-11T03:22:01.776Z,102197.53
2022-08-11T03:24:33.428Z,102202.34
2022-08-11T03:27:05.059Z,102195.06
2022-08-11T03:29:35.043Z,102193.91
2022-08-11T03:32:03.337Z,102190.25
2022-08-11T03:34:31.208Z,102191.09
2022-08-11T03:37:36.947Z,102200.72
2022-08-11T03:40:07.259Z,102195.06
2022-08-11T03:42:40.998Z,102189.44
2022-08-11T03:45:18.240Z,102186.63
2022-08-11T03:47:54.836Z,102192.25
2022-08-11T03:50:29.422Z,102197.91
2022-08-11T03:53:02.531Z,102191.81
2022-08-11T03:55:36.047Z,102203.06
2022-08-11T03:58:23.390Z,102196.00
2022-08-11T04:01:09.175Z,102195.78
2022-08-11T04:03:54.337Z,102190.16
2022-08-11T04:06:49.004Z,102195.78
2022-08-11T04:09:41.347Z,102194.63
2022-08-11T04:12:36.667Z,102184.50
2022-08-11T04:15:37.355Z,102190.97
2022-08-11T04:18:19.509Z,102190.16
2022-08-11T04:21:04.554Z,102186.50
2022-08-11T04:24:35.947Z,102184.50
2022-08-11T04:26:45.482Z,102188.50
2022-08-11T04:29:16.123Z,102194.13
2022-08-11T04:31:52.364Z,102199.78
2022-08-11T04:34:34.883Z,102198.94
2022-08-11T04:37:30.574Z,102200.59
2022-08-11T04:40:04.147Z,102205.41
2022-08-11T04:43:06.994Z,102199.78
2022-08-11T04:45:36.769Z,102211.03
2022-08-11T04:48:25.451Z,102206.56
2022-08-11T04:51:20.264Z,102209.38
2022-08-11T04:54:09.503Z,102213.84
2022-08-11T04:56:54.482Z,102203.75
2022-08-11T04:59:51.524Z,102206.56
2022-08-11T05:02:31.865Z,102211.03
2022-08-11T05:05:19.002Z,102209.38
2022-08-11T05:08:26.345Z,102211.03
2022-08-11T05:11:04.496Z,102211.38
2022-08-11T05:13:50.913Z,102215.03
2022-08-11T05:16:36.790Z,102214.22
2022-08-11T05:19:21.806Z,102214.22
2022-08-11T05:22:10.229Z,102220.66
2022-08-11T05:24:55.887Z,102220.66
2022-08-11T05:27:42.345Z,102219.84
2022-08-11T05:30:31.624Z,102224.28
2022-08-11T05:33:21.235Z,102219.03
2022-08-11T05:36:00.131Z,102217.38
2022-08-11T05:38:48.580Z,102221.84
2022-08-11T05:41:33.661Z,102226.28
2022-08-11T05:44:22.293Z,102231.91
2022-08-11T05:47:08.103Z,102231.91
2022-08-11T05:49:53.313Z,102235.91
2022-08-11T05:52:41.816Z,102231.09
2022-08-11T05:55:27.726Z,102231.09
2022-08-11T05:57:56.579Z,102231.91
2022-08-11T06:00:25.517Z,102231.91
2022-08-11T06:02:55.368Z,102235.91
2022-08-11T06:05:26.400Z,102237.53
2022-08-11T06:07:54.699Z,102233.09
2022-08-11T06:10:28.568Z,102231.91
2022-08-11T06:12:56.820Z,102235.91
2022-08-11T06:15:25.718Z,102236.72
2022-08-11T06:17:54.077Z,102239.53
2022-08-11T06:20:21.961Z,102237.53
2022-08-11T06:22:55.994Z,102243.19
2022-08-11T06:25:23.608Z,102242.34
2022-08-11T06:27:56.330Z,102235.91
2022-08-11T06:30:35.078Z,102243.53
2022-08-11T06:33:03.602Z,102241.53
2022-08-11T06:35:37.939Z,102241.53
2022-08-11T06:38:06.568Z,102243.19
2022-08-11T06:40:43.292Z,102246.00
2022-08-11T06:43:12.530Z,102249.63
2022-08-11T06:45:43.184Z,102248.81
2022-08-11T06:48:16.070Z,102244.81
2022-08-11T06:51:03.489Z,102237.53
2022-08-11T06:53:34.382Z,102250.44
2022-08-11T06:56:19.238Z,102244.81
2022-08-11T06:59:05.163Z,102243.19
2022-08-11T07:01:37.501Z,102237.53
2022-08-11T07:04:06.513Z,102239.19
2022-08-11T07:06:50.125Z,102237.53
2022-08-11T07:09:57.044Z,102233.56
2022-08-11T07:12:57.942Z,102237.53
2022-08-11T07:16:10.638Z,102227.09
2022-08-11T07:18:52.501Z,102224.28
2022-08-11T07:22:00.297Z,102220.66
2022-08-11T07:24:59.359Z,102227.91
2022-08-11T07:27:49.032Z,102224.28
2022-08-11T07:30:16.864Z,102225.09
2022-08-11T07:32:46.946Z,102227.91
2022-08-11T07:35:16.912Z,102221.47
2022-08-11T07:37:44.856Z,102221.09
2022-08-11T07:40:12.647Z,102216.66
2022-08-11T07:42:41.527Z,102218.28
2022-08-11T07:45:27.120Z,102218.28
2022-08-11T07:48:12.912Z,102217.47
2022-08-11T07:51:00.393Z,102222.28
2022-08-11T07:53:27.949Z,102229.56
2022-08-11T07:55:55.610Z,102211.84
2022-08-11T07:58:45.228Z,102227.91
2022-08-11T08:01:37.761Z,102223.94
2022-08-11T08:04:23.553Z,102223.09
2022-08-11T08:07:09.898Z,102217.47
2022-08-11T08:09:55.077Z,102218.28
2022-08-11T08:12:40.807Z,102215.47
2022-08-11T08:15:25.998Z,102212.66
2022-08-11T08:18:09.996Z,102205.03
2022-08-11T08:20:41.789Z,102207.84
2022-08-11T08:23:10.709Z,102208.69
2022-08-11T08:25:39.357Z,102204.22
2022-08-11T08:28:07.278Z,102202.22
2022-08-11T08:30:50.504Z,102202.22
2022-08-11T08:33:22.032Z,102201.41
2022-08-11T08:35:54.408Z,102200.25
2022-08-11T08:38:25.236Z,102203.06
2022-08-11T08:40:55.792Z,102197.44
2022-08-11T08:43:23.924Z,102195.44
2022-08-11T08:45:51.385Z,102204.69
2022-08-11T08:48:20.643Z,102203.88
2022-08-11T08:51:07.988Z,102197.44
2022-08-11T08:53:37.390Z,102194.63
2022-08-11T08:56:19.398Z,102198.25
2022-08-11T08:58:51.740Z,102200.25
2022-08-11T09:01:20.433Z,102200.72
2022-08-11T09:04:05.098Z,102193.44
2022-08-11T09:06:35.714Z,102200.72
2022-08-11T09:09:04.643Z,102194.63
2022-08-11T09:11:46.114Z,102197.44
2022-08-11T09:14:15.275Z,102195.44
2022-08-11T09:16:44.310Z,102192.25
2022-08-11T09:19:12.238Z,102200.72
2022-08-11T09:21:49.454Z,102193.44
2022-08-11T09:24:36.460Z,102195.44
2022-08-11T09:27:05.875Z,102193.44
2022-08-11T09:29:33.482Z,102180.53
2022-08-11T09:32:01.046Z,102183.38
2022-08-11T09:34:28.647Z,102180.53
2022-08-11T09:37:13.592Z,102183.81
2022-08-11T09:40:14.848Z,102173.38
2022-08-11T09:42:59.997Z,102175.38
2022-08-11T09:45:27.604Z,102179.00
2022-08-11T09:48:07.697Z,102161.28
2022-08-11T09:50:35.320Z,102161.28
2022-08-11T09:53:37.264Z,102162.13
2022-08-11T09:55:55.102Z,102162.13
2022-08-11T09:58:41.467Z,102163.75
2022-08-11T10:01:27.007Z,102148.84
2022-08-11T10:03:57.581Z,102150.84
2022-08-11T10:06:43.370Z,102151.66
2022-08-11T10:09:11.060Z,102146.03
2022-08-11T10:11:40.301Z,102138.78
2022-08-11T10:14:32.825Z,102144.41
2022-08-11T10:17:02.534Z,102145.22
2022-08-11T10:19:30.115Z,102139.59
2022-08-11T10:22:11.591Z,102144.41
2022-08-11T10:24:56.410Z,102140.41
2022-08-11T10:27:29.066Z,102138.41
2022-08-11T10:30:30.400Z,102131.16
2022-08-11T10:33:19.074Z,102127.50
2022-08-11T10:36:03.090Z,102124.34
2022-08-11T10:38:30.607Z,102117.88
2022-08-11T10:41:26.929Z,102117.06
2022-08-11T10:44:03.048Z,102116.25
2022-08-11T10:46:48.675Z,102123.50
2022-08-11T10:49:16.170Z,102119.50
2022-08-11T10:52:01.028Z,102111.06
2022-08-11T10:54:46.085Z,102116.69
2022-08-11T10:57:31.455Z,102115.88
2022-08-11T11:00:00.364Z,102107.44
2022-08-11T11:02:28.219Z,102102.63
2022-08-11T11:05:00.179Z,102097.00
2022-08-11T11:07:29.597Z,102101.00
2022-08-11T11:09:58.386Z,102096.19
2022-08-11T11:12:44.200Z,102094.53
2022-08-11T11:15:30.855Z,102091.38
2022-08-11T11:18:01.616Z,102089.72
2022-08-11T11:20:36.418Z,102082.91
2022-08-11T11:23:07.395Z,102080.09
2022-08-11T11:25:39.789Z,102085.72
2022-08-11T11:28:11.487Z,102076.09
2022-08-11T11:30:42.566Z,102078.91
2022-08-11T11:33:12.332Z,102076.09
2022-08-11T11:35:44.579Z,102076.09
2022-08-11T11:38:13.935Z,102060.88
2022-08-11T11:40:41.890Z,102065.69
2022-08-11T11:43:09.460Z,102060.88
2022-08-11T11:45:37.022Z,102066.50
2022-08-11T11:48:06.311Z,102070.47
2022-08-11T11:50:35.462Z,102077.78
2022-08-11T11:53:03.164Z,102060.88
2022-08-11T11:55:30.744Z,102064.50
2022-08-11T11:58:18.882Z,102056.88
2022-08-11T12:01:04.264Z,102055.25
2022-08-11T12:03:33.328Z,102055.69
2022-08-11T12:06:01.039Z,102056.88
2022-08-11T12:08:28.591Z,102054.06
2022-08-11T12:11:17.153Z,102045.63
2022-08-11T12:13:44.804Z,102038.34
2022-08-11T12:16:34.484Z,102039.97
2022-08-11T12:19:01.794Z,102034.34
2022-08-11T12:21:29.462Z,102028.72
2022-08-11T12:24:15.315Z,102028.72
2022-08-11T12:27:15.925Z,102025.91
2022-08-11T12:29:45.681Z,102013.00
2022-08-11T12:32:13.425Z,102022.28
2022-08-11T12:34:42.311Z,102028.72
2022-08-11T12:37:13.520Z,102020.28
2022-08-11T12:40:17.187Z,102011.00
2022-08-11T12:43:08.167Z,102006.19
2022-08-11T12:45:36.006Z,102006.19
2022-08-11T12:48:59.027Z,102000.56
2022-08-11T12:51:29.831Z,102010.66
2022-08-11T12:53:58.323Z,102006.19
2022-08-11T12:56:43.450Z,101994.94
2022-08-11T12:59:28.721Z,101996.94
2022-08-11T13:02:14.033Z,101994.94
2022-08-11T13:04:59.258Z,101996.56
2022-08-11T13:07:28.488Z,101985.31
2022-08-11T13:10:36.430Z,101990.94
2022-08-11T13:13:03.236Z,101985.31
2022-08-11T13:15:31.698Z,101986.94
2022-08-11T13:17:59.311Z,101981.31
2022-08-11T13:20:27.179Z,101975.66
2022-08-11T13:22:56.482Z,101975.66
2022-08-11T13:25:24.675Z,101974.84
2022-08-11T13:27:54.133Z,101970.84
2022-08-11T13:30:42.045Z,101971.69
2022-08-11T13:33:11.829Z,101964.41
2022-08-11T13:35:39.364Z,101965.59
2022-08-11T13:38:19.186Z,101970.03
2022-08-11T13:40:55.649Z,101964.41
2022-08-11T13:43:23.545Z,101955.97
2022-08-11T13:45:52.935Z,101957.59
2022-08-11T13:48:20.481Z,101949.16
2022-08-11T13:51:05.542Z,101947.53
2022-08-11T13:53:34.652Z,101949.16
2022-08-11T13:56:02.212Z,101944.34
2022-08-11T13:58:38.761Z,101949.97
2022-08-11T14:02:04.041Z,101949.16
2022-08-11T14:04:29.018Z,101943.53
2022-08-11T14:06:46.090Z,101945.19
2022-08-11T14:09:15.037Z,101945.19
2022-08-11T14:12:21.393Z,101949.97
2022-08-11T14:14:48.260Z,101932.25
2022-08-11T14:17:38.414Z,101935.88
2022-08-11T14:20:38.084Z,101928.28
2022-08-11T14:22:51.181Z,101933.06
2022-08-11T14:25:20.003Z,101921.81
2022-08-11T14:28:32.020Z,101920.66
2022-08-11T14:31:01.303Z,101918.66
2022-08-11T14:33:58.662Z,101921.47
2022-08-11T14:36:16.988Z,101918.66
2022-08-11T14:38:44.611Z,101907.41
2022-08-11T14:41:31.088Z,101909.03
2022-08-11T14:44:15.911Z,101914.66
2022-08-11T14:47:01.141Z,101910.66
2022-08-11T14:49:28.670Z,101908.22
2022-08-11T14:51:57.645Z,101908.22
2022-08-11T14:54:43.129Z,101903.38
2022-08-11T14:57:12.010Z,101903.38
2022-08-11T14:59:39.552Z,101903.38
2022-08-11T15:02:39.329Z,101906.22
2022-08-11T15:05:07.097Z,101897.75
2022-08-11T15:07:34.809Z,101886.50
2022-08-11T15:10:12.705Z,101893.75
2022-08-11T15:12:43.108Z,101892.13
2022-08-11T15:15:28.196Z,101884.13
2022-08-11T15:17:56.268Z,101892.13
2022-08-11T15:20:56.048Z,101888.13
2022-08-11T15:23:41.211Z,101888.13
2022-08-11T15:26:09.901Z,101882.50
2022-08-11T15:28:57.814Z,101876.88
2022-08-11T15:31:49.126Z,101876.50
2022-08-11T15:34:35.091Z,101872.88
2022-08-11T15:37:22.005Z,101872.88
2022-08-11T15:40:08.195Z,101876.50
2022-08-11T15:43:15.263Z,101872.88
2022-08-11T15:45:53.231Z,101867.22
2022-08-11T15:48:23.089Z,101878.50
2022-08-11T15:50:53.707Z,101877.69
2022-08-11T15:53:23.744Z,101878.50
2022-08-11T15:55:51.334Z,101884.13
2022-08-11T15:58:36.399Z,101870.03
2022-08-11T16:01:22.927Z,101867.22
2022-08-11T16:04:09.307Z,101868.03
2022-08-11T16:06:38.065Z,101850.34
2022-08-11T16:09:17.938Z,101858.78
2022-08-11T16:11:46.387Z,101857.59
2022-08-11T16:14:31.563Z,101864.88
2022-08-11T16:17:00.467Z,101851.97
2022-08-11T16:19:28.777Z,101859.59
2022-08-11T16:21:56.440Z,101852.81
2022-08-11T16:27:06.207Z,101851.16
2022-08-11T16:27:13.962Z,101846.34
2022-08-11T16:29:42.825Z,101847.19
2022-08-11T16:32:18.107Z,101844.72
2022-08-11T16:35:03.366Z,101851.97
2022-08-11T16:37:48.519Z,101851.16
2022-08-11T16:40:16.232Z,101853.63
2022-08-11T16:43:10.009Z,101846.34
2022-08-11T16:45:56.876Z,101848.81
2022-08-11T16:48:35.333Z,101845.19
2022-08-11T16:51:04.430Z,101847.19
2022-08-11T16:53:47.370Z,101850.81
2022-08-11T16:56:20.036Z,101839.53
2022-08-11T16:59:17.901Z,101847.19
2022-08-11T17:01:47.161Z,101849.63
2022-08-11T17:04:38.387Z,101848.00
2022-08-11T17:07:41.594Z,101853.63
2022-08-11T17:10:50.970Z,101850.81
2022-08-11T17:13:20.459Z,101855.25
2022-08-11T17:16:06.001Z,101838.72
2022-08-11T17:18:43.894Z,101845.19
2022-08-11T17:21:15.516Z,101851.97
2022-08-11T17:23:50.066Z,101845.53
2022-08-11T17:26:18.369Z,101853.63
2022-08-11T17:28:45.949Z,101855.25
2022-08-11T17:31:30.876Z,101852.44
2022-08-11T17:34:18.027Z,101850.81
2022-08-11T17:36:47.163Z,101856.44
2022-08-11T17:39:15.781Z,101855.25
2022-08-11T17:42:01.047Z,101850.81
2022-08-11T17:44:46.120Z,101849.63
2022-08-11T17:47:31.105Z,101855.25
2022-08-11T17:50:17.304Z,101854.44
2022-08-11T17:53:04.727Z,101849.63
2022-08-11T17:55:52.313Z,101855.63
2022-08-11T17:58:38.115Z,101853.63
2022-08-11T18:01:09.336Z,101849.63
2022-08-11T18:03:39.594Z,101854.44
2022-08-11T18:06:12.757Z,101858.06
2022-08-11T18:09:00.198Z,101855.25
2022-08-11T18:12:11.001Z,101860.88
2022-08-11T18:14:51.631Z,101866.53
2022-08-11T18:17:36.676Z,101864.88
2022-08-11T18:20:22.022Z,101864.88
2022-08-11T18:23:07.053Z,101860.88
2022-08-11T18:25:54.316Z,101872.16
2022-08-11T18:28:40.275Z,101870.53
2022-08-11T18:31:25.227Z,101871.34
2022-08-11T18:34:11.138Z,101872.16
2022-08-11T18:36:56.995Z,101877.78
2022-08-11T18:39:42.372Z,101885.41
2022-08-11T18:42:31.016Z,101889.03
2022-08-11T18:45:16.620Z,101881.78
2022-08-11T18:48:02.069Z,101886.22
2022-08-11T18:50:47.308Z,101889.03
2022-08-11T18:53:45.780Z,101892.69
2022-08-11T18:56:30.714Z,101891.84
2022-08-11T18:59:17.054Z,101887.41
2022-08-11T19:02:01.929Z,101897.50
2022-08-11T19:04:47.040Z,101887.41
2022-08-11T19:07:32.225Z,101889.03
2022-08-11T19:10:17.238Z,101894.69
2022-08-11T19:13:02.417Z,101900.31
2022-08-11T19:15:48.676Z,101900.31
2022-08-11T19:18:34.483Z,101909.94
2022-08-11T19:21:19.414Z,101899.50
2022-08-11T19:24:06.403Z,101907.13
2022-08-11T19:26:53.085Z,101909.13
2022-08-11T19:30:04.662Z,101912.75
2022-08-11T19:32:44.834Z,101914.75
2022-08-11T19:35:29.726Z,101910.75
2022-08-11T19:38:14.762Z,101917.19
2022-08-11T19:40:59.928Z,101916.38
2022-08-11T19:43:45.377Z,101916.38
2022-08-11T19:46:30.304Z,101916.38
2022-08-11T19:49:16.829Z,101916.38
2022-08-11T19:52:02.114Z,101911.56
2022-08-11T19:54:47.486Z,101904.31
2022-08-11T19:57:37.085Z,101901.50
2022-08-11T20:00:25.240Z,101909.94
2022-08-11T20:03:15.073Z,101915.56
2022-08-11T20:06:01.829Z,101904.31
2022-08-11T20:08:47.622Z,101899.84
2022-08-11T20:11:32.826Z,101905.94
2022-08-11T20:14:18.058Z,101903.13
2022-08-11T20:17:03.210Z,101911.56
2022-08-11T20:19:55.574Z,101907.94
2022-08-11T20:22:43.519Z,101909.94
2022-08-11T20:25:28.840Z,101915.56
2022-08-11T20:28:13.920Z,101912.75
2022-08-11T20:30:59.237Z,101919.53
2022-08-11T20:33:44.359Z,101920.38
2022-08-11T20:36:29.401Z,101926.84
2022-08-11T20:39:15.796Z,101920.38
2022-08-11T20:42:00.975Z,101917.03
2022-08-11T20:44:46.277Z,101919.53
2022-08-11T20:47:31.964Z,101926.84
2022-08-11T20:50:19.542Z,101928.47
2022-08-11T20:53:05.571Z,101926.03
2022-08-11T20:55:53.888Z,101926.84
2022-08-11T20:59:13.467Z,101934.91
2022-08-11T21:01:44.225Z,101939.72
2022-08-11T21:04:29.432Z,101927.66
2022-08-11T21:07:17.183Z,101932.47
2022-08-11T21:10:18.758Z,101948.19
2022-08-11T21:13:26.076Z,101944.53
2022-08-11T21:16:25.530Z,101943.72
2022-08-11T21:19:11.185Z,101943.72
2022-08-11T21:21:56.198Z,101943.72
2022-08-11T21:24:46.831Z,101951.00
2022-08-11T21:27:33.765Z,101943.72
2022-08-11T21:30:20.314Z,101943.72
2022-08-11T21:33:05.506Z,101943.72
2022-08-11T21:35:50.684Z,101949.38
2022-08-11T21:38:35.557Z,101948.56
2022-08-11T21:41:20.782Z,101957.81
2022-08-11T21:44:06.105Z,101955.00
2022-08-11T21:46:55.005Z,101955.00
2022-08-11T21:49:39.954Z,101955.00
2022-08-11T21:52:25.041Z,101956.16
2022-08-11T21:55:10.109Z,101960.63
2022-08-11T21:57:55.478Z,101961.44
2022-08-11T22:00:40.502Z,101966.25
2022-08-11T22:03:26.708Z,101964.59
2022-08-11T22:06:11.697Z,101970.22
2022-08-11T22:08:56.640Z,101960.63
2022-08-11T22:11:41.581Z,101963.44
2022-08-11T22:14:26.416Z,101965.44
2022-08-11T22:17:11.491Z,101954.19
2022-08-11T22:19:58.068Z,101958.16
2022-08-11T22:22:52.425Z,101958.97
2022-08-11T22:25:38.998Z,101959.81
2022-08-11T22:28:26.908Z,101958.97
2022-08-11T22:31:12.229Z,101958.97
2022-08-11T22:34:02.848Z,101957.34
2022-08-11T22:36:49.883Z,101960.16
2022-08-11T22:39:35.625Z,101957.00
2022-08-11T22:42:21.625Z,101950.53
2022-08-11T22:45:18.378Z,101950.53
2022-08-11T22:48:03.517Z,101953.34
2022-08-11T22:50:48.536Z,101962.97
2022-08-11T22:53:57.274Z,101961.34
2022-08-11T22:56:40.024Z,101962.97
2022-08-11T22:59:25.222Z,101962.16
2022-08-11T23:02:10.181Z,101969.41
2022-08-11T23:04:55.427Z,101966.97
2022-08-11T23:07:51.825Z,101966.97
2022-08-11T23:10:38.945Z,101960.53
2022-08-11T23:13:24.063Z,101966.97
2022-08-11T23:16:08.961Z,101972.59
2022-08-11T23:18:54.117Z,101972.59
2022-08-11T23:21:39.488Z,101977.03
2022-08-11T23:24:25.343Z,101978.22
2022-08-11T23:27:11.840Z,101966.97
2022-08-11T23:29:57.039Z,101966.97
2022-08-11T23:32:42.043Z,101973.41
2022-08-11T23:35:40.229Z,101970.97
2022-08-11T23:38:32.585Z,101981.03
2022-08-11T23:41:17.881Z,101975.41
2022-08-11T23:44:03.975Z,101977.03
2022-08-11T23:46:49.352Z,101982.22
2022-08-11T23:49:34.604Z,101975.78
2022-08-11T23:52:19.816Z,101987.03
2022-08-11T23:55:04.969Z,101992.69
2022-08-11T23:57:49.816Z,101987.84
